KMVH

N Bar Ranch Airport

Grassrange, Montana, USA
METAR KMVH 280100Z AUTO 04004KT 10SM SCT080 19/10 A3011 RMK AO2
Observed Flight Rules
May-28 @ 01:00 UTC (25 minutes ago) Visual Flight Rules
Wind Visibility Clouds
40° at 4 knots 10 miles
  • Scattered at 8,000' AGL
Temperatures Readings
Current 19°C / 66°F
Dewpoint 10°C / 50°F
Humidity 56%
Altimeter 30.11" Hg
Pressure 1020 hPa
Elevation 1355
METAR KMVH 280100Z AUTO 04004KT 10SM SCT080 19/10 A3011 RMK AO2
Observed Flight Rules
May-28 @ 01:00 UTC
(25 minutes ago)
VFR
Wind Visibility
40° at 4 knots 10 miles
Clouds
  • Scattered at 8,000' AGL
Temperature Dewpoint
19°C / 66°F 10°C / 50°F
Humidity Altimeter Pressure
56% 30.11" Hg 1020 hPa